createdAt,value
2022-09-03T00:02:34.634Z,16.16
2022-09-03T00:10:44.146Z,16.06
2022-09-03T00:15:45.129Z,15.99
2022-09-03T00:20:57.934Z,15.98
2022-09-03T00:26:26.789Z,15.99
2022-09-03T00:31:36.009Z,15.89
2022-09-03T00:36:45.209Z,15.93
2022-09-03T00:45:13.722Z,15.90
2022-09-03T00:50:36.131Z,15.85
2022-09-03T01:00:44.483Z,15.78
2022-09-03T01:06:17.770Z,15.79
2022-09-03T01:12:01.849Z,15.50
2022-09-03T01:18:59.958Z,15.20
2022-09-03T01:24:40.722Z,15.27
2022-09-03T01:30:00.048Z,15.21
2022-09-03T01:35:15.077Z,15.27
2022-09-03T01:40:35.227Z,15.23
2022-09-03T01:46:32.368Z,15.26
2022-09-03T01:51:34.458Z,15.56
2022-09-03T01:58:38.347Z,15.68
2022-09-03T02:03:42.173Z,15.57
2022-09-03T02:08:43.083Z,15.39
2022-09-03T02:13:48.859Z,15.21
2022-09-03T02:18:54.199Z,15.16
2022-09-03T02:23:55.268Z,15.29
2022-09-03T02:28:57.212Z,15.35
2022-09-03T02:33:58.128Z,15.46
2022-09-03T02:38:59.890Z,15.52
2022-09-03T02:44:36.264Z,15.41
2022-09-03T02:49:38.932Z,15.47
2022-09-03T02:54:40.179Z,15.43
2022-09-03T02:59:43.800Z,15.33
2022-09-03T03:04:44.702Z,15.43
2022-09-03T03:09:45.560Z,15.40
2022-09-03T03:14:46.447Z,15.46
2022-09-03T03:19:48.448Z,15.41
2022-09-03T03:24:49.745Z,15.34
2022-09-03T03:29:51.402Z,15.32
2022-09-03T03:34:52.246Z,15.33
2022-09-03T03:39:53.732Z,15.19
2022-09-03T03:44:55.004Z,15.29
2022-09-03T03:49:57.555Z,15.25
2022-09-03T03:54:58.469Z,15.31
2022-09-03T03:59:59.657Z,15.16
2022-09-03T04:05:01.039Z,15.25
2022-09-03T04:10:01.893Z,15.24
2022-09-03T04:15:03.290Z,15.29
2022-09-03T04:20:05.211Z,15.38
2022-09-03T04:25:06.523Z,15.44
2022-09-03T04:30:08.108Z,15.24
2022-09-03T04:35:09.198Z,15.29
2022-09-03T04:40:10.550Z,15.34
2022-09-03T04:45:15.040Z,15.42
2022-09-03T04:50:16.246Z,15.35
2022-09-03T04:55:18.752Z,15.22
2022-09-03T05:00:19.668Z,15.19
2022-09-03T05:05:20.552Z,15.16
2022-09-03T05:10:21.919Z,15.12
2022-09-03T05:15:22.780Z,15.06
2022-09-03T05:20:24.562Z,15.01
2022-09-03T05:25:25.383Z,14.71
2022-09-03T05:30:26.731Z,14.75
2022-09-03T05:35:30.158Z,14.57
2022-09-03T05:40:33.444Z,14.12
2022-09-03T05:45:34.294Z,14.06
2022-09-03T05:50:36.415Z,14.02
2022-09-03T05:55:37.208Z,14.00
2022-09-03T06:00:38.652Z,14.17
2022-09-03T06:05:39.464Z,14.04
2022-09-03T06:10:41.113Z,14.19
2022-09-03T06:15:42.101Z,14.26
2022-09-03T06:20:43.031Z,14.33
2022-09-03T06:25:43.814Z,14.25
2022-09-03T06:30:44.662Z,14.19
2022-09-03T06:35:46.213Z,14.34
2022-09-03T06:41:01.822Z,14.16
2022-09-03T06:46:06.098Z,14.18
2022-09-03T06:51:14.700Z,14.43
2022-09-03T06:56:18.524Z,14.32
2022-09-03T07:01:21.879Z,14.43
2022-09-03T07:06:25.015Z,14.40
2022-09-03T07:11:28.656Z,14.24
2022-09-03T07:16:36.751Z,14.08
2022-09-03T07:21:46.524Z,14.01
2022-09-03T07:26:50.060Z,13.69
2022-09-03T07:31:51.160Z,13.94
2022-09-03T07:36:53.283Z,13.78
2022-09-03T07:41:54.504Z,13.88
2022-09-03T07:46:55.895Z,13.70
2022-09-03T07:51:56.934Z,13.89
2022-09-03T07:56:58.445Z,13.94
2022-09-03T08:01:59.390Z,13.89
2022-09-03T08:07:00.236Z,14.08
2022-09-03T08:12:01.674Z,14.21
2022-09-03T08:17:02.663Z,14.24
2022-09-03T08:22:03.724Z,14.23
2022-09-03T08:27:04.658Z,14.33
2022-09-03T08:32:05.722Z,14.33
2022-09-03T08:37:09.142Z,14.22
2022-09-03T08:42:47.081Z,14.08
2022-09-03T08:47:56.195Z,13.85
2022-09-03T08:54:31.820Z,13.97
2022-09-03T08:59:33.216Z,14.15
2022-09-03T09:05:13.995Z,14.21
2022-09-03T09:10:47.212Z,14.49
2022-09-03T09:17:05.905Z,14.36
2022-09-03T09:22:40.390Z,14.77
2022-09-03T09:27:50.957Z,14.80
2022-09-03T09:32:52.259Z,15.02
2022-09-03T09:37:56.351Z,15.04
2022-09-03T09:43:30.428Z,15.28
2022-09-03T09:48:38.225Z,15.13
2022-09-03T09:53:40.545Z,15.00
2022-09-03T09:58:41.629Z,15.19
2022-09-03T10:03:57.273Z,15.12
2022-09-03T10:09:16.575Z,15.42
2022-09-03T10:14:34.544Z,15.57
2022-09-03T10:21:04.174Z,15.77
2022-09-03T10:26:16.069Z,16.60
2022-09-03T10:33:07.487Z,17.30
2022-09-03T10:40:56.227Z,17.08
2022-09-03T10:46:07.945Z,17.58
2022-09-03T10:51:27.443Z,17.60
2022-09-03T10:56:58.872Z,17.32
2022-09-03T11:04:09.969Z,17.73
2022-09-03T11:10:10.849Z,18.42
2022-09-03T11:15:27.964Z,18.62
2022-09-03T11:20:31.390Z,18.78
2022-09-03T11:25:36.437Z,18.37
2022-09-03T11:32:15.108Z,18.12
2022-09-03T11:37:27.752Z,19.66
2022-09-03T11:42:42.756Z,20.33
2022-09-03T11:47:44.826Z,19.93
2022-09-03T11:52:47.775Z,20.15
2022-09-03T11:57:48.695Z,20.24
2022-09-03T12:03:02.640Z,19.40
2022-09-03T12:10:37.514Z,18.62
2022-09-03T12:18:52.302Z,18.72
2022-09-03T12:23:58.008Z,18.95
2022-09-03T12:29:00.278Z,19.11
2022-09-03T12:34:09.429Z,19.20
2022-09-03T12:39:13.444Z,19.13
2022-09-03T12:44:14.485Z,19.02
2022-09-03T12:49:30.920Z,19.73
2022-09-03T12:54:34.214Z,19.40
2022-09-03T12:59:37.778Z,19.01
2022-09-03T13:04:39.883Z,18.88
2022-09-03T13:09:42.022Z,19.00
2022-09-03T13:14:46.424Z,19.29
2022-09-03T13:20:24.160Z,19.55
2022-09-03T13:30:48.036Z,20.58
2022-09-03T13:36:28.636Z,20.60
2022-09-03T13:41:49.445Z,21.10
2022-09-03T13:47:25.490Z,20.58
2022-09-03T13:53:04.208Z,20.17
2022-09-03T13:58:21.338Z,20.52
2022-09-03T14:03:48.106Z,20.59
2022-09-03T14:11:08.903Z,20.26
2022-09-03T14:17:41.128Z,19.78
2022-09-03T14:23:25.366Z,19.38
2022-09-03T14:28:59.013Z,19.45
2022-09-03T14:34:24.137Z,19.31
2022-09-03T14:39:51.725Z,19.40
2022-09-03T14:45:15.796Z,19.67
2022-09-03T14:50:42.356Z,19.50
2022-09-03T14:56:12.081Z,19.62
2022-09-03T15:01:28.964Z,19.60
2022-09-03T15:07:30.183Z,19.24
2022-09-03T15:12:38.362Z,19.49
2022-09-03T15:23:48.521Z,19.45
2022-09-03T15:30:17.594Z,19.19
2022-09-03T15:36:53.624Z,18.99
2022-09-03T15:42:28.450Z,18.32
2022-09-03T15:47:53.196Z,16.48
2022-09-03T15:53:35.976Z,15.57
2022-09-03T15:59:18.857Z,15.61
2022-09-03T16:04:56.965Z,15.82
2022-09-03T16:12:35.527Z,16.11
2022-09-03T16:19:39.174Z,16.75
2022-09-03T16:24:53.145Z,17.55
2022-09-03T16:30:01.634Z,17.65
2022-09-03T16:35:23.347Z,17.79
2022-09-03T16:40:52.202Z,17.77
2022-09-03T16:46:12.637Z,17.88
2022-09-03T16:51:34.317Z,17.86
2022-09-03T16:56:49.528Z,17.96
2022-09-03T17:06:12.084Z,17.91
2022-09-03T17:14:01.552Z,17.81
2022-09-03T17:20:47.247Z,17.62
2022-09-03T17:26:42.411Z,17.54
2022-09-03T17:33:36.943Z,17.44
2022-09-03T17:39:44.722Z,16.92
2022-09-03T17:44:59.990Z,16.72
2022-09-03T17:50:24.155Z,16.80
2022-09-03T17:55:36.966Z,16.72
2022-09-03T18:01:28.312Z,16.59
2022-09-03T18:06:51.757Z,16.40
2022-09-03T18:16:43.387Z,16.10
2022-09-03T18:22:06.717Z,15.80
2022-09-03T18:27:36.285Z,15.70
2022-09-03T18:32:56.129Z,15.61
2022-09-03T18:38:15.958Z,15.50
2022-09-03T18:44:02.354Z,15.56
2022-09-03T18:49:48.101Z,15.48
2022-09-03T18:58:50.814Z,15.71
2022-09-03T19:07:18.678Z,15.74
2022-09-03T19:14:25.443Z,15.63
2022-09-03T19:22:03.745Z,15.48
2022-09-03T19:29:16.897Z,15.56
2022-09-03T19:36:15.635Z,15.56
2022-09-03T19:42:05.971Z,15.67
2022-09-03T19:47:27.497Z,15.46
2022-09-03T19:53:33.250Z,15.12
2022-09-03T19:58:55.993Z,15.13
2022-09-03T20:04:22.214Z,15.03
2022-09-03T20:09:47.688Z,15.10
2022-09-03T20:14:48.805Z,15.09
2022-09-03T20:20:13.786Z,15.23
2022-09-03T20:25:44.204Z,15.31
2022-09-03T20:31:47.524Z,15.29
2022-09-03T20:39:44.556Z,15.23
2022-09-03T20:44:53.742Z,15.12
2022-09-03T20:51:22.023Z,15.27
2022-09-03T20:56:36.815Z,15.21
2022-09-03T21:01:51.489Z,15.32
2022-09-03T21:10:06.779Z,15.29
2022-09-03T21:15:12.850Z,15.32
2022-09-03T21:20:36.340Z,15.23
2022-09-03T21:26:14.483Z,15.27
2022-09-03T21:31:23.064Z,15.31
2022-09-03T21:36:29.618Z,15.31
2022-09-03T21:41:43.547Z,15.28
2022-09-03T21:46:58.043Z,15.26
2022-09-03T21:52:11.318Z,15.07
2022-09-03T21:58:01.575Z,14.83
2022-09-03T22:03:05.728Z,14.82
2022-09-03T22:08:44.750Z,14.79
2022-09-03T22:14:02.058Z,14.73
2022-09-03T22:19:08.186Z,14.76
2022-09-03T22:24:32.539Z,14.77
2022-09-03T22:29:45.995Z,14.57
2022-09-03T22:35:22.723Z,14.76
2022-09-03T22:45:48.592Z,14.46
2022-09-03T22:50:58.118Z,14.26
2022-09-03T22:56:14.256Z,14.16
2022-09-03T23:01:24.598Z,13.94
2022-09-03T23:06:33.346Z,13.84
2022-09-03T23:11:52.471Z,14.00
2022-09-03T23:16:59.657Z,14.19
2022-09-03T23:22:04.775Z,14.13
2022-09-03T23:27:13.332Z,14.08
2022-09-03T23:32:14.418Z,14.34
2022-09-03T23:40:23.302Z,14.25
2022-09-03T23:46:33.817Z,14.08
2022-09-03T23:54:24.847Z,14.21
